sensor_id;sensor_type;location;lat;lon;timestamp;P1;durP1;ratioP1;P2;durP2;ratioP2
18296;SDS011;18066;52.106;5.534;2023-04-24T00:01:13;2.60;;;0.80;;
18296;SDS011;18066;52.106;5.534;2023-04-24T00:03:42;1.10;;;1.00;;
18296;SDS011;18066;52.106;5.534;2023-04-24T00:06:08;1.53;;;1.20;;
18296;SDS011;18066;52.106;5.534;2023-04-24T00:08:35;3.57;;;1.20;;
18296;SDS011;18066;52.106;5.534;2023-04-24T00:11:04;2.13;;;1.57;;
18296;SDS011;18066;52.106;5.534;2023-04-24T00:13:30;2.37;;;2.00;;
18296;SDS011;18066;52.106;5.534;2023-04-24T00:15:57;2.50;;;2.30;;
18296;SDS011;18066;52.106;5.534;2023-04-24T00:18:24;4.37;;;2.53;;
18296;SDS011;18066;52.106;5.534;2023-04-24T00:20:51;2.77;;;2.53;;
18296;SDS011;18066;52.106;5.534;2023-04-24T00:23:18;4.47;;;2.77;;
18296;SDS011;18066;52.106;5.534;2023-04-24T00:25:45;3.30;;;3.00;;
18296;SDS011;18066;52.106;5.534;2023-04-24T00:28:13;3.57;;;2.60;;
18296;SDS011;18066;52.106;5.534;2023-04-24T00:30:40;2.93;;;2.43;;
18296;SDS011;18066;52.106;5.534;2023-04-24T00:33:07;7.47;;;2.77;;
18296;SDS011;18066;52.106;5.534;2023-04-24T00:35:34;3.30;;;2.53;;
18296;SDS011;18066;52.106;5.534;2023-04-24T00:38:00;3.87;;;2.80;;
18296;SDS011;18066;52.106;5.534;2023-04-24T00:40:27;5.63;;;2.60;;
18296;SDS011;18066;52.106;5.534;2023-04-24T00:42:54;2.60;;;2.40;;
18296;SDS011;18066;52.106;5.534;2023-04-24T00:45:23;5.60;;;2.80;;
18296;SDS011;18066;52.106;5.534;2023-04-24T00:47:50;2.47;;;2.27;;
18296;SDS011;18066;52.106;5.534;2023-04-24T00:50:18;4.63;;;2.50;;
18296;SDS011;18066;52.106;5.534;2023-04-24T00:52:48;3.20;;;2.80;;
18296;SDS011;18066;52.106;5.534;2023-04-24T00:55:15;2.87;;;2.37;;
18296;SDS011;18066;52.106;5.534;2023-04-24T00:57:41;7.13;;;2.83;;
18296;SDS011;18066;52.106;5.534;2023-04-24T01:00:09;5.60;;;2.90;;
18296;SDS011;18066;52.106;5.534;2023-04-24T01:02:38;3.67;;;2.90;;
18296;SDS011;18066;52.106;5.534;2023-04-24T01:05:09;3.50;;;2.90;;
18296;SDS011;18066;52.106;5.534;2023-04-24T01:07:36;3.27;;;2.80;;
18296;SDS011;18066;52.106;5.534;2023-04-24T01:10:04;4.17;;;3.40;;
18296;SDS011;18066;52.106;5.534;2023-04-24T01:12:32;3.50;;;3.13;;
18296;SDS011;18066;52.106;5.534;2023-04-24T01:14:59;5.13;;;3.60;;
18296;SDS011;18066;52.106;5.534;2023-04-24T01:17:26;5.53;;;3.10;;
18296;SDS011;18066;52.106;5.534;2023-04-24T01:19:54;5.13;;;3.33;;
18296;SDS011;18066;52.106;5.534;2023-04-24T01:22:23;5.90;;;4.23;;
18296;SDS011;18066;52.106;5.534;2023-04-24T01:24:50;5.23;;;4.20;;
18296;SDS011;18066;52.106;5.534;2023-04-24T01:27:18;6.20;;;5.13;;
18296;SDS011;18066;52.106;5.534;2023-04-24T01:29:45;6.70;;;4.40;;
18296;SDS011;18066;52.106;5.534;2023-04-24T01:32:12;7.07;;;4.87;;
18296;SDS011;18066;52.106;5.534;2023-04-24T01:34:39;8.40;;;5.13;;
18296;SDS011;18066;52.106;5.534;2023-04-24T01:37:06;5.33;;;4.83;;
18296;SDS011;18066;52.106;5.534;2023-04-24T01:39:34;8.10;;;4.93;;
18296;SDS011;18066;52.106;5.534;2023-04-24T01:42:01;8.33;;;4.97;;
18296;SDS011;18066;52.106;5.534;2023-04-24T01:44:28;8.57;;;5.60;;
18296;SDS011;18066;52.106;5.534;2023-04-24T01:46:56;8.53;;;5.30;;
18296;SDS011;18066;52.106;5.534;2023-04-24T01:49:23;6.00;;;5.33;;
18296;SDS011;18066;52.106;5.534;2023-04-24T01:51:49;7.87;;;5.43;;
18296;SDS011;18066;52.106;5.534;2023-04-24T01:54:16;5.13;;;4.53;;
18296;SDS011;18066;52.106;5.534;2023-04-24T01:56:44;5.20;;;4.70;;
18296;SDS011;18066;52.106;5.534;2023-04-24T01:59:12;6.60;;;5.13;;
18296;SDS011;18066;52.106;5.534;2023-04-24T02:01:39;7.27;;;4.73;;
18296;SDS011;18066;52.106;5.534;2023-04-24T02:04:06;6.50;;;4.10;;
18296;SDS011;18066;52.106;5.534;2023-04-24T02:06:33;4.50;;;3.90;;
18296;SDS011;18066;52.106;5.534;2023-04-24T02:09:00;3.30;;;3.00;;
18296;SDS011;18066;52.106;5.534;2023-04-24T02:11:27;4.70;;;2.30;;
18296;SDS011;18066;52.106;5.534;2023-04-24T02:13:56;3.60;;;2.80;;
18296;SDS011;18066;52.106;5.534;2023-04-24T02:16:23;3.80;;;3.17;;
18296;SDS011;18066;52.106;5.534;2023-04-24T02:18:49;3.67;;;3.37;;
18296;SDS011;18066;52.106;5.534;2023-04-24T02:21:16;4.00;;;3.60;;
18296;SDS011;18066;52.106;5.534;2023-04-24T02:23:43;5.80;;;3.97;;
18296;SDS011;18066;52.106;5.534;2023-04-24T02:26:10;5.50;;;4.27;;
18296;SDS011;18066;52.106;5.534;2023-04-24T02:28:37;6.30;;;3.80;;
18296;SDS011;18066;52.106;5.534;2023-04-24T02:31:05;4.20;;;3.80;;
18296;SDS011;18066;52.106;5.534;2023-04-24T02:33:32;3.90;;;3.50;;
18296;SDS011;18066;52.106;5.534;2023-04-24T02:35:59;4.37;;;3.70;;
18296;SDS011;18066;52.106;5.534;2023-04-24T02:38:25;5.10;;;4.13;;
18296;SDS011;18066;52.106;5.534;2023-04-24T02:40:52;5.37;;;4.10;;
18296;SDS011;18066;52.106;5.534;2023-04-24T02:43:19;5.00;;;4.50;;
18296;SDS011;18066;52.106;5.534;2023-04-24T02:45:46;7.23;;;3.80;;
18296;SDS011;18066;52.106;5.534;2023-04-24T02:48:14;6.23;;;4.10;;
18296;SDS011;18066;52.106;5.534;2023-04-24T02:50:42;4.27;;;3.80;;
18296;SDS011;18066;52.106;5.534;2023-04-24T02:53:08;6.13;;;4.30;;
18296;SDS011;18066;52.106;5.534;2023-04-24T02:55:35;8.57;;;3.87;;
18296;SDS011;18066;52.106;5.534;2023-04-24T02:58:02;4.60;;;3.97;;
18296;SDS011;18066;52.106;5.534;2023-04-24T03:00:29;5.33;;;4.20;;
18296;SDS011;18066;52.106;5.534;2023-04-24T03:02:55;6.30;;;4.10;;
18296;SDS011;18066;52.106;5.534;2023-04-24T03:05:24;4.40;;;3.80;;
18296;SDS011;18066;52.106;5.534;2023-04-24T03:07:52;3.43;;;3.00;;
18296;SDS011;18066;52.106;5.534;2023-04-24T03:10:19;5.07;;;3.03;;
18296;SDS011;18066;52.106;5.534;2023-04-24T03:12:47;6.50;;;3.50;;
18296;SDS011;18066;52.106;5.534;2023-04-24T03:15:14;5.17;;;3.30;;
18296;SDS011;18066;52.106;5.534;2023-04-24T03:17:42;5.60;;;3.77;;
18296;SDS011;18066;52.106;5.534;2023-04-24T03:20:09;4.00;;;3.60;;
18296;SDS011;18066;52.106;5.534;2023-04-24T03:22:37;4.53;;;3.90;;
18296;SDS011;18066;52.106;5.534;2023-04-24T03:25:04;4.07;;;3.67;;
18296;SDS011;18066;52.106;5.534;2023-04-24T03:27:33;5.87;;;4.00;;
18296;SDS011;18066;52.106;5.534;2023-04-24T03:29:59;4.07;;;3.67;;
18296;SDS011;18066;52.106;5.534;2023-04-24T03:32:27;4.00;;;3.60;;
18296;SDS011;18066;52.106;5.534;2023-04-24T03:34:53;4.43;;;3.90;;
18296;SDS011;18066;52.106;5.534;2023-04-24T03:37:20;5.50;;;4.13;;
18296;SDS011;18066;52.106;5.534;2023-04-24T03:39:48;8.10;;;4.50;;
18296;SDS011;18066;52.106;5.534;2023-04-24T03:42:15;4.13;;;3.73;;
18296;SDS011;18066;52.106;5.534;2023-04-24T03:44:42;5.03;;;4.20;;
18296;SDS011;18066;52.106;5.534;2023-04-24T03:47:09;4.27;;;3.87;;
18296;SDS011;18066;52.106;5.534;2023-04-24T03:49:35;4.63;;;3.70;;
18296;SDS011;18066;52.106;5.534;2023-04-24T03:52:02;3.80;;;2.63;;
18296;SDS011;18066;52.106;5.534;2023-04-24T03:54:29;4.30;;;2.90;;
18296;SDS011;18066;52.106;5.534;2023-04-24T03:56:57;4.37;;;3.07;;
18296;SDS011;18066;52.106;5.534;2023-04-24T03:59:24;3.33;;;2.40;;
18296;SDS011;18066;52.106;5.534;2023-04-24T04:01:50;3.53;;;2.30;;
18296;SDS011;18066;52.106;5.534;2023-04-24T04:04:17;2.17;;;1.97;;
18296;SDS011;18066;52.106;5.534;2023-04-24T04:06:44;3.73;;;2.43;;
18296;SDS011;18066;52.106;5.534;2023-04-24T04:09:11;2.30;;;1.97;;
18296;SDS011;18066;52.106;5.534;2023-04-24T04:11:38;2.40;;;2.03;;
18296;SDS011;18066;52.106;5.534;2023-04-24T04:14:06;3.60;;;2.67;;
18296;SDS011;18066;52.106;5.534;2023-04-24T04:16:33;3.67;;;2.83;;
18296;SDS011;18066;52.106;5.534;2023-04-24T04:19:01;6.20;;;3.53;;
18296;SDS011;18066;52.106;5.534;2023-04-24T04:21:28;5.03;;;2.73;;
18296;SDS011;18066;52.106;5.534;2023-04-24T04:23:56;7.67;;;2.97;;
18296;SDS011;18066;52.106;5.534;2023-04-24T04:26:23;4.17;;;2.50;;
18296;SDS011;18066;52.106;5.534;2023-04-24T04:28:50;2.20;;;1.90;;
18296;SDS011;18066;52.106;5.534;2023-04-24T04:31:18;3.07;;;1.87;;
18296;SDS011;18066;52.106;5.534;2023-04-24T04:33:45;2.83;;;1.90;;
18296;SDS011;18066;52.106;5.534;2023-04-24T04:36:12;2.30;;;2.03;;
18296;SDS011;18066;52.106;5.534;2023-04-24T04:38:39;2.10;;;1.80;;
18296;SDS011;18066;52.106;5.534;2023-04-24T04:41:07;4.00;;;1.40;;
18296;SDS011;18066;52.106;5.534;2023-04-24T04:43:34;2.03;;;1.70;;
18296;SDS011;18066;52.106;5.534;2023-04-24T04:46:01;1.70;;;1.60;;
18296;SDS011;18066;52.106;5.534;2023-04-24T04:48:29;2.00;;;1.53;;
18296;SDS011;18066;52.106;5.534;2023-04-24T04:50:56;5.20;;;1.70;;
18296;SDS011;18066;52.106;5.534;2023-04-24T04:53:23;1.97;;;1.77;;
18296;SDS011;18066;52.106;5.534;2023-04-24T04:55:50;3.90;;;1.60;;
18296;SDS011;18066;52.106;5.534;2023-04-24T04:58:17;1.80;;;1.70;;
18296;SDS011;18066;52.106;5.534;2023-04-24T05:00:44;2.00;;;1.70;;
18296;SDS011;18066;52.106;5.534;2023-04-24T05:03:11;2.30;;;1.97;;
18296;SDS011;18066;52.106;5.534;2023-04-24T05:05:39;3.50;;;1.93;;
18296;SDS011;18066;52.106;5.534;2023-04-24T05:08:06;3.10;;;1.60;;
18296;SDS011;18066;52.106;5.534;2023-04-24T05:10:33;1.93;;;1.70;;
18296;SDS011;18066;52.106;5.534;2023-04-24T05:13:01;4.90;;;2.73;;
18296;SDS011;18066;52.106;5.534;2023-04-24T05:15:28;4.30;;;2.30;;
18296;SDS011;18066;52.106;5.534;2023-04-24T05:17:55;3.97;;;2.40;;
18296;SDS011;18066;52.106;5.534;2023-04-24T05:20:22;3.10;;;2.37;;
18296;SDS011;18066;52.106;5.534;2023-04-24T05:22:51;4.67;;;2.53;;
18296;SDS011;18066;52.106;5.534;2023-04-24T05:25:18;3.50;;;2.83;;
18296;SDS011;18066;52.106;5.534;2023-04-24T05:27:44;3.87;;;2.83;;
18296;SDS011;18066;52.106;5.534;2023-04-24T05:30:12;3.30;;;2.93;;
18296;SDS011;18066;52.106;5.534;2023-04-24T05:32:39;4.10;;;3.20;;
18296;SDS011;18066;52.106;5.534;2023-04-24T05:35:06;4.93;;;2.57;;
18296;SDS011;18066;52.106;5.534;2023-04-24T05:37:33;2.93;;;2.63;;
18296;SDS011;18066;52.106;5.534;2023-04-24T05:40:01;4.07;;;2.83;;
18296;SDS011;18066;52.106;5.534;2023-04-24T05:42:30;3.07;;;2.63;;
18296;SDS011;18066;52.106;5.534;2023-04-24T05:44:57;6.07;;;3.20;;
18296;SDS011;18066;52.106;5.534;2023-04-24T05:47:23;2.50;;;2.30;;
18296;SDS011;18066;52.106;5.534;2023-04-24T05:49:51;3.87;;;3.03;;
18296;SDS011;18066;52.106;5.534;2023-04-24T05:52:18;3.13;;;2.70;;
18296;SDS011;18066;52.106;5.534;2023-04-24T05:54:45;2.73;;;2.47;;
18296;SDS011;18066;52.106;5.534;2023-04-24T05:57:13;2.90;;;2.60;;
18296;SDS011;18066;52.106;5.534;2023-04-24T05:59:40;3.43;;;2.47;;
18296;SDS011;18066;52.106;5.534;2023-04-24T06:02:07;3.97;;;3.07;;
18296;SDS011;18066;52.106;5.534;2023-04-24T06:04:33;4.10;;;2.50;;
18296;SDS011;18066;52.106;5.534;2023-04-24T06:07:00;5.70;;;3.20;;
18296;SDS011;18066;52.106;5.534;2023-04-24T06:09:27;5.57;;;3.33;;
18296;SDS011;18066;52.106;5.534;2023-04-24T06:11:54;4.23;;;3.17;;
18296;SDS011;18066;52.106;5.534;2023-04-24T06:14:23;7.00;;;3.67;;
18296;SDS011;18066;52.106;5.534;2023-04-24T06:16:50;4.33;;;2.80;;
18296;SDS011;18066;52.106;5.534;2023-04-24T06:19:17;4.30;;;2.90;;
18296;SDS011;18066;52.106;5.534;2023-04-24T06:21:44;5.43;;;3.50;;
18296;SDS011;18066;52.106;5.534;2023-04-24T06:24:10;5.23;;;3.03;;
18296;SDS011;18066;52.106;5.534;2023-04-24T06:26:39;4.70;;;3.77;;
18296;SDS011;18066;52.106;5.534;2023-04-24T06:29:07;4.73;;;3.60;;
18296;SDS011;18066;52.106;5.534;2023-04-24T06:31:35;5.47;;;3.93;;
18296;SDS011;18066;52.106;5.534;2023-04-24T06:34:02;4.30;;;3.30;;
18296;SDS011;18066;52.106;5.534;2023-04-24T06:36:28;4.73;;;3.17;;
18296;SDS011;18066;52.106;5.534;2023-04-24T06:38:56;5.27;;;2.90;;
18296;SDS011;18066;52.106;5.534;2023-04-24T06:41:23;2.97;;;1.63;;
18296;SDS011;18066;52.106;5.534;2023-04-24T06:43:50;5.63;;;1.00;;
18296;SDS011;18066;52.106;5.534;2023-04-24T06:46:16;0.70;;;0.60;;
18296;SDS011;18066;52.106;5.534;2023-04-24T06:48:45;3.97;;;0.90;;
18296;SDS011;18066;52.106;5.534;2023-04-24T06:51:11;1.00;;;0.90;;
18296;SDS011;18066;52.106;5.534;2023-04-24T06:53:38;2.00;;;1.60;;
18296;SDS011;18066;52.106;5.534;2023-04-24T06:56:05;2.93;;;2.10;;
18296;SDS011;18066;52.106;5.534;2023-04-24T06:58:32;5.10;;;2.80;;
18296;SDS011;18066;52.106;5.534;2023-04-24T07:00:59;7.00;;;4.10;;
18296;SDS011;18066;52.106;5.534;2023-04-24T07:03:25;9.67;;;5.53;;
18296;SDS011;18066;52.106;5.534;2023-04-24T07:05:53;10.17;;;6.17;;
18296;SDS011;18066;52.106;5.534;2023-04-24T07:08:21;9.63;;;5.77;;
18296;SDS011;18066;52.106;5.534;2023-04-24T07:10:48;10.77;;;6.50;;
18296;SDS011;18066;52.106;5.534;2023-04-24T07:13:15;11.80;;;7.33;;
18296;SDS011;18066;52.106;5.534;2023-04-24T07:15:42;13.23;;;7.27;;
18296;SDS011;18066;52.106;5.534;2023-04-24T07:18:09;15.03;;;7.73;;
18296;SDS011;18066;52.106;5.534;2023-04-24T07:20:36;12.73;;;8.13;;
18296;SDS011;18066;52.106;5.534;2023-04-24T07:23:04;14.03;;;7.93;;
18296;SDS011;18066;52.106;5.534;2023-04-24T07:25:31;12.23;;;8.57;;
18296;SDS011;18066;52.106;5.534;2023-04-24T07:27:58;15.87;;;9.07;;
18296;SDS011;18066;52.106;5.534;2023-04-24T07:30:25;18.87;;;9.20;;
18296;SDS011;18066;52.106;5.534;2023-04-24T07:32:53;15.07;;;8.73;;
18296;SDS011;18066;52.106;5.534;2023-04-24T07:35:20;17.73;;;8.73;;
18296;SDS011;18066;52.106;5.534;2023-04-24T07:37:47;16.80;;;8.93;;
18296;SDS011;18066;52.106;5.534;2023-04-24T07:40:15;17.53;;;8.40;;
18296;SDS011;18066;52.106;5.534;2023-04-24T07:42:42;14.37;;;7.97;;
18296;SDS011;18066;52.106;5.534;2023-04-24T07:45:09;16.73;;;8.70;;
18296;SDS011;18066;52.106;5.534;2023-04-24T07:47:36;21.93;;;9.03;;
18296;SDS011;18066;52.106;5.534;2023-04-24T07:50:05;10.97;;;7.63;;
18296;SDS011;18066;52.106;5.534;2023-04-24T07:52:32;14.43;;;7.80;;
18296;SDS011;18066;52.106;5.534;2023-04-24T07:54:59;16.63;;;7.50;;
18296;SDS011;18066;52.106;5.534;2023-04-24T07:57:28;16.37;;;7.23;;
18296;SDS011;18066;52.106;5.534;2023-04-24T07:59:55;14.77;;;7.33;;
18296;SDS011;18066;52.106;5.534;2023-04-24T08:02:22;14.07;;;7.50;;
18296;SDS011;18066;52.106;5.534;2023-04-24T08:04:51;16.70;;;7.90;;
18296;SDS011;18066;52.106;5.534;2023-04-24T08:07:18;10.30;;;7.00;;
18296;SDS011;18066;52.106;5.534;2023-04-24T08:09:45;18.30;;;7.47;;
18296;SDS011;18066;52.106;5.534;2023-04-24T08:12:12;12.53;;;7.30;;
18296;SDS011;18066;52.106;5.534;2023-04-24T08:14:40;16.30;;;7.20;;
18296;SDS011;18066;52.106;5.534;2023-04-24T08:17:07;14.23;;;8.20;;
18296;SDS011;18066;52.106;5.534;2023-04-24T08:19:34;18.97;;;8.17;;
18296;SDS011;18066;52.106;5.534;2023-04-24T08:22:01;11.40;;;7.20;;
18296;SDS011;18066;52.106;5.534;2023-04-24T08:24:29;15.73;;;6.57;;
18296;SDS011;18066;52.106;5.534;2023-04-24T08:26:55;13.47;;;5.17;;
18296;SDS011;18066;52.106;5.534;2023-04-24T08:29:23;8.87;;;4.57;;
18296;SDS011;18066;52.106;5.534;2023-04-24T08:31:51;10.37;;;4.67;;
18296;SDS011;18066;52.106;5.534;2023-04-24T08:34:20;12.47;;;4.27;;
18296;SDS011;18066;52.106;5.534;2023-04-24T08:36:46;9.20;;;4.43;;
18296;SDS011;18066;52.106;5.534;2023-04-24T08:39:13;10.43;;;4.10;;
18296;SDS011;18066;52.106;5.534;2023-04-24T08:41:41;9.43;;;3.33;;
18296;SDS011;18066;52.106;5.534;2023-04-24T08:44:10;7.23;;;3.27;;
18296;SDS011;18066;52.106;5.534;2023-04-24T08:46:37;10.30;;;3.90;;
18296;SDS011;18066;52.106;5.534;2023-04-24T08:49:06;14.77;;;4.78;;
18296;SDS011;18066;52.106;5.534;2023-04-24T08:51:33;10.80;;;4.23;;
18296;SDS011;18066;52.106;5.534;2023-04-24T08:54:02;10.10;;;3.50;;
18296;SDS011;18066;52.106;5.534;2023-04-24T08:56:30;11.03;;;3.90;;
18296;SDS011;18066;52.106;5.534;2023-04-24T08:59:02;13.33;;;3.83;;
18296;SDS011;18066;52.106;5.534;2023-04-24T09:01:29;14.27;;;3.47;;
18296;SDS011;18066;52.106;5.534;2023-04-24T09:03:59;13.53;;;2.90;;
18296;SDS011;18066;52.106;5.534;2023-04-24T09:06:30;16.47;;;3.00;;
18296;SDS011;18066;52.106;5.534;2023-04-24T09:08:58;10.90;;;2.90;;
18296;SDS011;18066;52.106;5.534;2023-04-24T09:11:27;7.57;;;2.50;;
18296;SDS011;18066;52.106;5.534;2023-04-24T09:13:55;11.13;;;2.90;;
18296;SDS011;18066;52.106;5.534;2023-04-24T09:16:22;15.23;;;2.77;;
18296;SDS011;18066;52.106;5.534;2023-04-24T09:18:51;8.37;;;1.97;;
18296;SDS011;18066;52.106;5.534;2023-04-24T09:21:20;8.70;;;2.20;;
18296;SDS011;18066;52.106;5.534;2023-04-24T09:23:48;10.93;;;2.17;;
18296;SDS011;18066;52.106;5.534;2023-04-24T09:26:24;8.27;;;1.97;;
18296;SDS011;18066;52.106;5.534;2023-04-24T09:28:51;10.60;;;2.00;;
18296;SDS011;18066;52.106;5.534;2023-04-24T09:31:19;14.20;;;2.87;;
18296;SDS011;18066;52.106;5.534;2023-04-24T09:33:53;7.43;;;2.40;;
18296;SDS011;18066;52.106;5.534;2023-04-24T09:36:26;10.23;;;2.60;;
18296;SDS011;18066;52.106;5.534;2023-04-24T09:38:58;8.70;;;2.20;;
18296;SDS011;18066;52.106;5.534;2023-04-24T09:41:26;6.63;;;2.03;;
18296;SDS011;18066;52.106;5.534;2023-04-24T09:43:53;9.87;;;2.73;;
18296;SDS011;18066;52.106;5.534;2023-04-24T09:46:21;8.43;;;2.03;;
18296;SDS011;18066;52.106;5.534;2023-04-24T09:48:55;11.17;;;2.60;;
18296;SDS011;18066;52.106;5.534;2023-04-24T09:51:32;14.43;;;2.57;;
18296;SDS011;18066;52.106;5.534;2023-04-24T09:54:03;13.43;;;2.20;;
18296;SDS011;18066;52.106;5.534;2023-04-24T09:56:32;7.97;;;2.10;;
18296;SDS011;18066;52.106;5.534;2023-04-24T09:59:06;8.03;;;2.27;;
18296;SDS011;18066;52.106;5.534;2023-04-24T10:01:33;7.10;;;1.90;;
18296;SDS011;18066;52.106;5.534;2023-04-24T10:04:00;7.03;;;1.80;;
18296;SDS011;18066;52.106;5.534;2023-04-24T10:06:31;4.93;;;1.57;;
18296;SDS011;18066;52.106;5.534;2023-04-24T10:08:59;27.17;;;2.10;;
18296;SDS011;18066;52.106;5.534;2023-04-24T10:11:27;4.53;;;1.53;;
18296;SDS011;18066;52.106;5.534;2023-04-24T10:13:55;10.23;;;1.77;;
18296;SDS011;18066;52.106;5.534;2023-04-24T10:16:23;7.07;;;1.57;;
18296;SDS011;18066;52.106;5.534;2023-04-24T10:18:52;8.03;;;2.17;;
18296;SDS011;18066;52.106;5.534;2023-04-24T10:21:19;9.50;;;2.30;;
18296;SDS011;18066;52.106;5.534;2023-04-24T10:23:46;6.37;;;1.67;;
18296;SDS011;18066;52.106;5.534;2023-04-24T10:26:15;8.57;;;1.83;;
18296;SDS011;18066;52.106;5.534;2023-04-24T10:28:46;6.90;;;1.90;;
18296;SDS011;18066;52.106;5.534;2023-04-24T10:31:13;6.30;;;1.27;;
18296;SDS011;18066;52.106;5.534;2023-04-24T10:33:40;5.70;;;1.60;;
18296;SDS011;18066;52.106;5.534;2023-04-24T10:36:09;10.40;;;1.97;;
18296;SDS011;18066;52.106;5.534;2023-04-24T10:38:37;4.23;;;1.60;;
18296;SDS011;18066;52.106;5.534;2023-04-24T10:41:07;5.80;;;1.57;;
18296;SDS011;18066;52.106;5.534;2023-04-24T10:43:35;4.73;;;1.53;;
18296;SDS011;18066;52.106;5.534;2023-04-24T10:46:04;5.33;;;1.63;;
18296;SDS011;18066;52.106;5.534;2023-04-24T10:48:33;5.90;;;1.20;;
18296;SDS011;18066;52.106;5.534;2023-04-24T10:51:00;2.63;;;0.83;;
18296;SDS011;18066;52.106;5.534;2023-04-24T10:53:28;6.63;;;1.27;;
18296;SDS011;18066;52.106;5.534;2023-04-24T10:55:58;1.10;;;0.47;;
18296;SDS011;18066;52.106;5.534;2023-04-24T10:58:35;1.93;;;0.80;;
18296;SDS011;18066;52.106;5.534;2023-04-24T11:01:05;2.20;;;0.60;;
18296;SDS011;18066;52.106;5.534;2023-04-24T11:03:33;3.53;;;0.80;;
18296;SDS011;18066;52.106;5.534;2023-04-24T11:06:01;2.93;;;0.90;;
18296;SDS011;18066;52.106;5.534;2023-04-24T11:08:30;1.97;;;1.00;;
18296;SDS011;18066;52.106;5.534;2023-04-24T11:10:59;4.97;;;1.00;;
18296;SDS011;18066;52.106;5.534;2023-04-24T11:13:31;2.33;;;0.80;;
18296;SDS011;18066;52.106;5.534;2023-04-24T11:16:43;2.73;;;0.87;;
18296;SDS011;18066;52.106;5.534;2023-04-24T11:19:17;2.93;;;0.63;;
18296;SDS011;18066;52.106;5.534;2023-04-24T11:21:47;4.77;;;0.73;;
18296;SDS011;18066;52.106;5.534;2023-04-24T11:24:23;4.80;;;0.80;;
18296;SDS011;18066;52.106;5.534;2023-04-24T11:26:58;1.87;;;0.90;;
18296;SDS011;18066;52.106;5.534;2023-04-24T11:29:41;4.63;;;0.80;;
18296;SDS011;18066;52.106;5.534;2023-04-24T11:32:17;7.83;;;1.00;;
18296;SDS011;18066;52.106;5.534;2023-04-24T11:34:54;3.78;;;0.93;;
18296;SDS011;18066;52.106;5.534;2023-04-24T11:37:22;4.87;;;1.30;;
18296;SDS011;18066;52.106;5.534;2023-04-24T11:39:51;5.67;;;0.93;;
18296;SDS011;18066;52.106;5.534;2023-04-24T11:42:19;4.47;;;1.00;;
18296;SDS011;18066;52.106;5.534;2023-04-24T11:44:47;2.27;;;0.70;;
18296;SDS011;18066;52.106;5.534;2023-04-24T11:47:16;3.83;;;0.77;;
18296;SDS011;18066;52.106;5.534;2023-04-24T11:49:43;5.93;;;1.23;;
18296;SDS011;18066;52.106;5.534;2023-04-24T11:52:10;5.53;;;0.67;;
18296;SDS011;18066;52.106;5.534;2023-04-24T11:54:36;4.63;;;0.87;;
18296;SDS011;18066;52.106;5.534;2023-04-24T11:57:03;7.77;;;1.53;;
18296;SDS011;18066;52.106;5.534;2023-04-24T11:59:35;2.87;;;1.20;;
18296;SDS011;18066;52.106;5.534;2023-04-24T12:02:02;7.13;;;1.03;;
18296;SDS011;18066;52.106;5.534;2023-04-24T12:04:37;6.70;;;0.90;;
18296;SDS011;18066;52.106;5.534;2023-04-24T12:07:05;3.10;;;0.60;;
18296;SDS011;18066;52.106;5.534;2023-04-24T12:09:40;4.53;;;0.60;;
18296;SDS011;18066;52.106;5.534;2023-04-24T12:12:08;2.15;;;0.63;;
18296;SDS011;18066;52.106;5.534;2023-04-24T12:14:41;1.00;;;0.40;;
18296;SDS011;18066;52.106;5.534;2023-04-24T12:17:09;0.83;;;0.50;;
18296;SDS011;18066;52.106;5.534;2023-04-24T12:19:37;1.63;;;0.57;;
18296;SDS011;18066;52.106;5.534;2023-04-24T12:22:05;1.07;;;0.50;;
18296;SDS011;18066;52.106;5.534;2023-04-24T12:24:32;1.73;;;0.50;;
18296;SDS011;18066;52.106;5.534;2023-04-24T12:26:59;1.57;;;0.50;;
18296;SDS011;18066;52.106;5.534;2023-04-24T12:29:26;3.60;;;0.80;;
18296;SDS011;18066;52.106;5.534;2023-04-24T12:31:53;2.20;;;0.60;;
18296;SDS011;18066;52.106;5.534;2023-04-24T12:34:20;2.63;;;0.50;;
18296;SDS011;18066;52.106;5.534;2023-04-24T12:36:49;6.93;;;1.07;;
18296;SDS011;18066;52.106;5.534;2023-04-24T12:39:16;4.00;;;0.60;;
18296;SDS011;18066;52.106;5.534;2023-04-24T12:41:51;2.47;;;0.70;;
18296;SDS011;18066;52.106;5.534;2023-04-24T12:44:28;9.43;;;1.60;;
18296;SDS011;18066;52.106;5.534;2023-04-24T12:46:55;8.77;;;1.57;;
18296;SDS011;18066;52.106;5.534;2023-04-24T12:49:22;7.33;;;1.00;;
18296;SDS011;18066;52.106;5.534;2023-04-24T12:51:50;5.13;;;0.93;;
18296;SDS011;18066;52.106;5.534;2023-04-24T12:54:17;5.77;;;1.53;;
18296;SDS011;18066;52.106;5.534;2023-04-24T12:56:44;7.80;;;1.13;;
18296;SDS011;18066;52.106;5.534;2023-04-24T12:59:11;3.20;;;1.00;;
18296;SDS011;18066;52.106;5.534;2023-04-24T13:01:37;7.63;;;1.80;;
18296;SDS011;18066;52.106;5.534;2023-04-24T13:04:05;11.60;;;1.87;;
18296;SDS011;18066;52.106;5.534;2023-04-24T13:06:32;7.77;;;1.73;;
18296;SDS011;18066;52.106;5.534;2023-04-24T13:09:00;6.30;;;1.07;;
18296;SDS011;18066;52.106;5.534;2023-04-24T13:11:26;7.57;;;1.40;;
18296;SDS011;18066;52.106;5.534;2023-04-24T13:13:54;4.40;;;1.33;;
18296;SDS011;18066;52.106;5.534;2023-04-24T13:16:21;6.13;;;1.50;;
18296;SDS011;18066;52.106;5.534;2023-04-24T13:18:48;7.57;;;1.30;;
18296;SDS011;18066;52.106;5.534;2023-04-24T13:21:15;8.67;;;1.97;;
18296;SDS011;18066;52.106;5.534;2023-04-24T13:23:42;7.27;;;1.73;;
18296;SDS011;18066;52.106;5.534;2023-04-24T13:26:10;9.53;;;2.07;;
18296;SDS011;18066;52.106;5.534;2023-04-24T13:28:36;8.87;;;1.80;;
18296;SDS011;18066;52.106;5.534;2023-04-24T13:31:03;12.97;;;1.60;;
18296;SDS011;18066;52.106;5.534;2023-04-24T13:33:31;10.57;;;2.07;;
18296;SDS011;18066;52.106;5.534;2023-04-24T13:35:58;7.40;;;1.90;;
18296;SDS011;18066;52.106;5.534;2023-04-24T13:38:24;6.83;;;1.77;;
18296;SDS011;18066;52.106;5.534;2023-04-24T13:40:51;11.03;;;1.90;;
18296;SDS011;18066;52.106;5.534;2023-04-24T13:43:19;10.43;;;2.20;;
18296;SDS011;18066;52.106;5.534;2023-04-24T13:45:46;7.37;;;1.93;;
18296;SDS011;18066;52.106;5.534;2023-04-24T13:48:13;7.07;;;1.53;;
18296;SDS011;18066;52.106;5.534;2023-04-24T13:50:40;8.73;;;1.60;;
18296;SDS011;18066;52.106;5.534;2023-04-24T13:53:07;8.97;;;1.97;;
18296;SDS011;18066;52.106;5.534;2023-04-24T13:55:34;9.77;;;2.20;;
18296;SDS011;18066;52.106;5.534;2023-04-24T13:58:01;11.90;;;2.33;;
18296;SDS011;18066;52.106;5.534;2023-04-24T14:00:30;10.23;;;1.67;;
18296;SDS011;18066;52.106;5.534;2023-04-24T14:02:57;10.17;;;2.30;;
18296;SDS011;18066;52.106;5.534;2023-04-24T14:05:23;16.20;;;2.20;;
18296;SDS011;18066;52.106;5.534;2023-04-24T14:07:50;12.50;;;2.30;;
18296;SDS011;18066;52.106;5.534;2023-04-24T14:10:17;8.17;;;2.03;;
18296;SDS011;18066;52.106;5.534;2023-04-24T14:12:44;5.27;;;1.80;;
18296;SDS011;18066;52.106;5.534;2023-04-24T14:15:11;5.20;;;1.80;;
18296;SDS011;18066;52.106;5.534;2023-04-24T14:17:39;8.00;;;1.73;;
18296;SDS011;18066;52.106;5.534;2023-04-24T14:20:07;11.07;;;2.20;;
18296;SDS011;18066;52.106;5.534;2023-04-24T14:22:34;9.20;;;1.83;;
18296;SDS011;18066;52.106;5.534;2023-04-24T14:25:01;12.47;;;2.33;;
18296;SDS011;18066;52.106;5.534;2023-04-24T14:27:28;9.80;;;2.07;;
18296;SDS011;18066;52.106;5.534;2023-04-24T14:29:55;7.83;;;2.00;;
18296;SDS011;18066;52.106;5.534;2023-04-24T14:32:22;7.23;;;2.17;;
18296;SDS011;18066;52.106;5.534;2023-04-24T14:34:50;5.87;;;2.07;;
18296;SDS011;18066;52.106;5.534;2023-04-24T14:37:17;12.23;;;2.17;;
18296;SDS011;18066;52.106;5.534;2023-04-24T14:39:44;9.67;;;2.00;;
18296;SDS011;18066;52.106;5.534;2023-04-24T14:42:11;14.07;;;2.37;;
18296;SDS011;18066;52.106;5.534;2023-04-24T14:44:38;9.20;;;2.47;;
18296;SDS011;18066;52.106;5.534;2023-04-24T14:47:05;13.87;;;3.00;;
18296;SDS011;18066;52.106;5.534;2023-04-24T14:49:32;13.13;;;2.70;;